sensor_id;sensor_type;location;lat;lon;timestamp;temperature;humidity
15133;DHT22;7667;51.232;17.110;2023-06-19T00:02:18;13.50;99.90
15133;DHT22;7667;51.232;17.110;2023-06-19T00:04:45;13.50;99.90
15133;DHT22;7667;51.232;17.110;2023-06-19T00:07:13;13.50;99.90
15133;DHT22;7667;51.232;17.110;2023-06-19T00:09:41;13.40;99.90
15133;DHT22;7667;51.232;17.110;2023-06-19T00:12:08;13.30;99.90
15133;DHT22;7667;51.232;17.110;2023-06-19T00:14:36;13.30;99.90
15133;DHT22;7667;51.232;17.110;2023-06-19T00:17:04;13.20;99.90
15133;DHT22;7667;51.232;17.110;2023-06-19T00:19:33;13.10;99.90
15133;DHT22;7667;51.232;17.110;2023-06-19T00:22:04;13.10;99.90
15133;DHT22;7667;51.232;17.110;2023-06-19T00:24:31;13.10;99.90
15133;DHT22;7667;51.232;17.110;2023-06-19T00:26:59;13.10;99.90
15133;DHT22;7667;51.232;17.110;2023-06-19T00:29:31;13.10;99.90
15133;DHT22;7667;51.232;17.110;2023-06-19T00:31:59;13.10;99.90
15133;DHT22;7667;51.232;17.110;2023-06-19T00:34:29;13.00;99.90
15133;DHT22;7667;51.232;17.110;2023-06-19T00:36:58;12.90;99.90
15133;DHT22;7667;51.232;17.110;2023-06-19T00:39:26;12.90;99.90
15133;DHT22;7667;51.232;17.110;2023-06-19T00:41:55;12.90;99.90
15133;DHT22;7667;51.232;17.110;2023-06-19T00:44:23;12.90;99.90
15133;DHT22;7667;51.232;17.110;2023-06-19T00:46:56;12.90;99.90
15133;DHT22;7667;51.232;17.110;2023-06-19T00:49:28;12.90;99.90
15133;DHT22;7667;51.232;17.110;2023-06-19T00:51:57;12.90;99.90
15133;DHT22;7667;51.232;17.110;2023-06-19T00:54:25;12.80;99.90
15133;DHT22;7667;51.232;17.110;2023-06-19T00:56:53;12.80;99.90
15133;DHT22;7667;51.232;17.110;2023-06-19T00:59:21;12.80;99.90
15133;DHT22;7667;51.232;17.110;2023-06-19T01:01:49;12.70;99.90
15133;DHT22;7667;51.232;17.110;2023-06-19T01:04:17;12.70;99.90
15133;DHT22;7667;51.232;17.110;2023-06-19T01:06:56;12.60;99.90
15133;DHT22;7667;51.232;17.110;2023-06-19T01:09:48;12.50;99.90
15133;DHT22;7667;51.232;17.110;2023-06-19T01:12:26;12.40;99.90
15133;DHT22;7667;51.232;17.110;2023-06-19T01:15:02;12.30;99.90
15133;DHT22;7667;51.232;17.110;2023-06-19T01:17:32;12.20;99.90
15133;DHT22;7667;51.232;17.110;2023-06-19T01:20:01;12.20;99.90
15133;DHT22;7667;51.232;17.110;2023-06-19T01:22:38;12.10;99.90
15133;DHT22;7667;51.232;17.110;2023-06-19T01:25:06;12.10;99.90
15133;DHT22;7667;51.232;17.110;2023-06-19T01:27:34;12.10;99.90
15133;DHT22;7667;51.232;17.110;2023-06-19T01:30:03;12.10;99.90
15133;DHT22;7667;51.232;17.110;2023-06-19T01:32:34;12.10;99.90
15133;DHT22;7667;51.232;17.110;2023-06-19T01:35:09;12.10;99.90
15133;DHT22;7667;51.232;17.110;2023-06-19T01:37:40;12.20;99.90
15133;DHT22;7667;51.232;17.110;2023-06-19T01:40:10;12.30;99.90
15133;DHT22;7667;51.232;17.110;2023-06-19T01:42:39;12.40;99.90
15133;DHT22;7667;51.232;17.110;2023-06-19T01:45:08;12.40;99.90
15133;DHT22;7667;51.232;17.110;2023-06-19T01:47:36;12.40;99.90
15133;DHT22;7667;51.232;17.110;2023-06-19T01:50:05;12.30;99.90
15133;DHT22;7667;51.232;17.110;2023-06-19T01:52:33;12.30;99.90
15133;DHT22;7667;51.232;17.110;2023-06-19T01:55:01;12.30;99.90
15133;DHT22;7667;51.232;17.110;2023-06-19T01:57:29;12.20;99.90
15133;DHT22;7667;51.232;17.110;2023-06-19T01:59:57;12.20;99.90
15133;DHT22;7667;51.232;17.110;2023-06-19T02:02:25;12.20;99.90
15133;DHT22;7667;51.232;17.110;2023-06-19T02:04:53;12.20;99.90
15133;DHT22;7667;51.232;17.110;2023-06-19T02:07:20;12.20;99.90
15133;DHT22;7667;51.232;17.110;2023-06-19T02:09:48;12.20;99.90
15133;DHT22;7667;51.232;17.110;2023-06-19T02:12:16;12.20;99.90
15133;DHT22;7667;51.232;17.110;2023-06-19T02:14:43;12.10;99.90
15133;DHT22;7667;51.232;17.110;2023-06-19T02:17:11;12.20;99.90
15133;DHT22;7667;51.232;17.110;2023-06-19T02:19:39;12.20;99.90
15133;DHT22;7667;51.232;17.110;2023-06-19T02:22:06;12.10;99.90
15133;DHT22;7667;51.232;17.110;2023-06-19T02:24:34;12.10;99.90
15133;DHT22;7667;51.232;17.110;2023-06-19T02:27:04;11.90;99.90
15133;DHT22;7667;51.232;17.110;2023-06-19T02:29:33;11.80;99.90
15133;DHT22;7667;51.232;17.110;2023-06-19T02:32:01;11.80;99.90
15133;DHT22;7667;51.232;17.110;2023-06-19T02:34:29;11.70;99.90
15133;DHT22;7667;51.232;17.110;2023-06-19T02:36:57;11.70;99.90
15133;DHT22;7667;51.232;17.110;2023-06-19T02:39:24;11.60;99.90
15133;DHT22;7667;51.232;17.110;2023-06-19T02:41:52;11.60;99.90
15133;DHT22;7667;51.232;17.110;2023-06-19T02:44:20;11.60;99.90
15133;DHT22;7667;51.232;17.110;2023-06-19T02:46:47;11.60;99.90
15133;DHT22;7667;51.232;17.110;2023-06-19T02:49:15;11.50;99.90
15133;DHT22;7667;51.232;17.110;2023-06-19T02:51:42;11.50;99.90
15133;DHT22;7667;51.232;17.110;2023-06-19T02:54:10;11.50;99.90
15133;DHT22;7667;51.232;17.110;2023-06-19T02:56:38;11.50;99.90
15133;DHT22;7667;51.232;17.110;2023-06-19T02:59:06;11.50;99.90
15133;DHT22;7667;51.232;17.110;2023-06-19T03:01:33;11.50;99.90
15133;DHT22;7667;51.232;17.110;2023-06-19T03:04:01;11.50;99.90
15133;DHT22;7667;51.232;17.110;2023-06-19T03:06:29;11.60;99.90
15133;DHT22;7667;51.232;17.110;2023-06-19T03:08:56;11.60;99.90
15133;DHT22;7667;51.232;17.110;2023-06-19T03:11:24;11.70;99.90
15133;DHT22;7667;51.232;17.110;2023-06-19T03:13:53;11.70;99.90
15133;DHT22;7667;51.232;17.110;2023-06-19T03:16:21;11.70;99.90
15133;DHT22;7667;51.232;17.110;2023-06-19T03:18:49;11.70;99.90
15133;DHT22;7667;51.232;17.110;2023-06-19T03:21:19;11.70;99.90
15133;DHT22;7667;51.232;17.110;2023-06-19T03:23:47;11.80;99.90
15133;DHT22;7667;51.232;17.110;2023-06-19T03:26:14;11.90;99.90
15133;DHT22;7667;51.232;17.110;2023-06-19T03:28:42;12.00;99.90
15133;DHT22;7667;51.232;17.110;2023-06-19T03:31:10;12.00;99.90
15133;DHT22;7667;51.232;17.110;2023-06-19T03:33:37;12.10;99.90
15133;DHT22;7667;51.232;17.110;2023-06-19T03:36:05;12.00;99.90
15133;DHT22;7667;51.232;17.110;2023-06-19T03:38:33;12.10;99.90
15133;DHT22;7667;51.232;17.110;2023-06-19T03:41:01;12.30;99.90
15133;DHT22;7667;51.232;17.110;2023-06-19T03:43:29;12.40;99.90
15133;DHT22;7667;51.232;17.110;2023-06-19T03:45:57;12.50;99.90
15133;DHT22;7667;51.232;17.110;2023-06-19T03:48:24;12.60;99.90
15133;DHT22;7667;51.232;17.110;2023-06-19T03:50:52;12.80;99.90
15133;DHT22;7667;51.232;17.110;2023-06-19T03:53:19;13.00;99.90
15133;DHT22;7667;51.232;17.110;2023-06-19T03:55:47;13.20;99.90
15133;DHT22;7667;51.232;17.110;2023-06-19T03:58:15;13.40;99.90
15133;DHT22;7667;51.232;17.110;2023-06-19T04:00:42;13.60;99.90
15133;DHT22;7667;51.232;17.110;2023-06-19T04:03:10;13.70;99.90
15133;DHT22;7667;51.232;17.110;2023-06-19T04:05:38;13.90;99.90
15133;DHT22;7667;51.232;17.110;2023-06-19T04:08:08;14.10;99.90
15133;DHT22;7667;51.232;17.110;2023-06-19T04:10:36;14.30;99.90
15133;DHT22;7667;51.232;17.110;2023-06-19T04:13:04;14.50;99.90
15133;DHT22;7667;51.232;17.110;2023-06-19T04:15:34;14.70;99.90
15133;DHT22;7667;51.232;17.110;2023-06-19T04:18:03;14.90;99.90
15133;DHT22;7667;51.232;17.110;2023-06-19T04:20:30;15.10;99.90
15133;DHT22;7667;51.232;17.110;2023-06-19T04:22:58;15.40;99.90
15133;DHT22;7667;51.232;17.110;2023-06-19T04:25:26;15.60;99.90
15133;DHT22;7667;51.232;17.110;2023-06-19T04:27:54;15.80;99.90
15133;DHT22;7667;51.232;17.110;2023-06-19T04:30:21;16.10;99.90
15133;DHT22;7667;51.232;17.110;2023-06-19T04:32:49;16.40;99.90
15133;DHT22;7667;51.232;17.110;2023-06-19T04:35:17;16.50;99.90
15133;DHT22;7667;51.232;17.110;2023-06-19T04:37:45;16.70;99.90
15133;DHT22;7667;51.232;17.110;2023-06-19T04:40:16;16.90;99.90
15133;DHT22;7667;51.232;17.110;2023-06-19T04:42:43;16.80;99.90
15133;DHT22;7667;51.232;17.110;2023-06-19T04:45:11;16.90;99.90
15133;DHT22;7667;51.232;17.110;2023-06-19T04:47:38;16.90;99.90
15133;DHT22;7667;51.232;17.110;2023-06-19T04:50:22;16.80;99.90
15133;DHT22;7667;51.232;17.110;2023-06-19T04:52:51;16.80;99.90
15133;DHT22;7667;51.232;17.110;2023-06-19T04:55:19;17.00;99.90
15133;DHT22;7667;51.232;17.110;2023-06-19T04:57:47;17.20;99.90
15133;DHT22;7667;51.232;17.110;2023-06-19T05:00:15;17.30;99.90
15133;DHT22;7667;51.232;17.110;2023-06-19T05:02:46;17.40;99.90
15133;DHT22;7667;51.232;17.110;2023-06-19T05:05:15;17.60;99.90
15133;DHT22;7667;51.232;17.110;2023-06-19T05:07:50;17.60;99.90
15133;DHT22;7667;51.232;17.110;2023-06-19T05:10:18;17.70;99.90
15133;DHT22;7667;51.232;17.110;2023-06-19T05:12:46;17.70;99.90
15133;DHT22;7667;51.232;17.110;2023-06-19T05:15:14;17.80;99.90
15133;DHT22;7667;51.232;17.110;2023-06-19T05:17:41;17.80;99.90
15133;DHT22;7667;51.232;17.110;2023-06-19T05:20:10;17.80;99.90
15133;DHT22;7667;51.232;17.110;2023-06-19T05:22:38;18.00;99.90
15133;DHT22;7667;51.232;17.110;2023-06-19T05:25:06;17.90;99.90
15133;DHT22;7667;51.232;17.110;2023-06-19T05:27:34;17.90;99.90
15133;DHT22;7667;51.232;17.110;2023-06-19T05:30:03;18.10;99.90
15133;DHT22;7667;51.232;17.110;2023-06-19T05:32:31;18.00;99.90
15133;DHT22;7667;51.232;17.110;2023-06-19T05:34:59;18.10;99.90
15133;DHT22;7667;51.232;17.110;2023-06-19T05:37:27;17.90;99.90
15133;DHT22;7667;51.232;17.110;2023-06-19T05:39:54;17.90;99.90
15133;DHT22;7667;51.232;17.110;2023-06-19T05:42:22;17.90;99.90
15133;DHT22;7667;51.232;17.110;2023-06-19T05:44:50;18.10;99.90
15133;DHT22;7667;51.232;17.110;2023-06-19T05:47:17;18.20;99.90
15133;DHT22;7667;51.232;17.110;2023-06-19T05:49:48;18.50;99.90
15133;DHT22;7667;51.232;17.110;2023-06-19T05:52:15;18.70;99.90
15133;DHT22;7667;51.232;17.110;2023-06-19T05:54:43;18.80;99.90
15133;DHT22;7667;51.232;17.110;2023-06-19T05:57:11;18.90;99.90
15133;DHT22;7667;51.232;17.110;2023-06-19T05:59:39;18.90;99.90
15133;DHT22;7667;51.232;17.110;2023-06-19T06:02:08;19.00;99.90
15133;DHT22;7667;51.232;17.110;2023-06-19T06:04:36;19.10;99.90
15133;DHT22;7667;51.232;17.110;2023-06-19T06:07:04;19.10;99.90
15133;DHT22;7667;51.232;17.110;2023-06-19T06:09:32;19.00;99.90
15133;DHT22;7667;51.232;17.110;2023-06-19T06:12:03;18.90;99.90
15133;DHT22;7667;51.232;17.110;2023-06-19T06:14:31;18.90;99.90
15133;DHT22;7667;51.232;17.110;2023-06-19T06:16:58;19.10;99.90
15133;DHT22;7667;51.232;17.110;2023-06-19T06:19:26;19.30;99.90
15133;DHT22;7667;51.232;17.110;2023-06-19T06:21:55;19.60;99.90
15133;DHT22;7667;51.232;17.110;2023-06-19T06:24:23;19.80;99.90
15133;DHT22;7667;51.232;17.110;2023-06-19T06:26:50;19.90;99.90
15133;DHT22;7667;51.232;17.110;2023-06-19T06:29:18;20.00;99.90
15133;DHT22;7667;51.232;17.110;2023-06-19T06:31:47;20.00;99.90
15133;DHT22;7667;51.232;17.110;2023-06-19T06:34:14;20.10;99.90
15133;DHT22;7667;51.232;17.110;2023-06-19T06:36:42;20.20;99.90
15133;DHT22;7667;51.232;17.110;2023-06-19T06:39:27;20.40;99.90
15133;DHT22;7667;51.232;17.110;2023-06-19T06:41:55;20.70;99.90
15133;DHT22;7667;51.232;17.110;2023-06-19T06:44:22;21.00;99.90
15133;DHT22;7667;51.232;17.110;2023-06-19T06:46:50;21.30;99.90
15133;DHT22;7667;51.232;17.110;2023-06-19T06:49:21;21.40;99.90
15133;DHT22;7667;51.232;17.110;2023-06-19T06:51:49;21.70;99.90
15133;DHT22;7667;51.232;17.110;2023-06-19T06:54:17;21.60;99.90
15133;DHT22;7667;51.232;17.110;2023-06-19T06:56:44;21.80;99.90
15133;DHT22;7667;51.232;17.110;2023-06-19T06:59:15;21.90;99.90
15133;DHT22;7667;51.232;17.110;2023-06-19T07:01:42;21.90;99.90
15133;DHT22;7667;51.232;17.110;2023-06-19T07:04:10;22.00;99.90
15133;DHT22;7667;51.232;17.110;2023-06-19T07:06:37;22.10;99.90
15133;DHT22;7667;51.232;17.110;2023-06-19T07:09:05;22.20;99.90
15133;DHT22;7667;51.232;17.110;2023-06-19T07:11:32;22.00;99.90
15133;DHT22;7667;51.232;17.110;2023-06-19T07:14:01;21.90;99.90
15133;DHT22;7667;51.232;17.110;2023-06-19T07:16:29;22.30;99.90
15133;DHT22;7667;51.232;17.110;2023-06-19T07:18:57;22.50;99.90
15133;DHT22;7667;51.232;17.110;2023-06-19T07:21:27;22.30;99.90
15133;DHT22;7667;51.232;17.110;2023-06-19T07:23:55;22.10;99.90
15133;DHT22;7667;51.232;17.110;2023-06-19T07:26:23;22.40;99.90
15133;DHT22;7667;51.232;17.110;2023-06-19T07:28:51;22.60;99.90
15133;DHT22;7667;51.232;17.110;2023-06-19T07:31:19;22.80;99.90
15133;DHT22;7667;51.232;17.110;2023-06-19T07:33:46;23.10;99.90
15133;DHT22;7667;51.232;17.110;2023-06-19T07:36:14;23.10;99.90
15133;DHT22;7667;51.232;17.110;2023-06-19T07:38:43;23.40;99.90
15133;DHT22;7667;51.232;17.110;2023-06-19T07:41:12;23.50;99.90
15133;DHT22;7667;51.232;17.110;2023-06-19T07:43:39;23.50;99.90
15133;DHT22;7667;51.232;17.110;2023-06-19T07:46:07;23.50;99.90
15133;DHT22;7667;51.232;17.110;2023-06-19T07:48:34;23.90;99.90
15133;DHT22;7667;51.232;17.110;2023-06-19T07:51:02;23.90;99.90
15133;DHT22;7667;51.232;17.110;2023-06-19T07:53:30;24.10;99.90
15133;DHT22;7667;51.232;17.110;2023-06-19T07:55:57;23.90;99.90
15133;DHT22;7667;51.232;17.110;2023-06-19T07:58:25;24.10;99.90
15133;DHT22;7667;51.232;17.110;2023-06-19T08:00:52;24.30;99.90
15133;DHT22;7667;51.232;17.110;2023-06-19T08:03:20;24.40;99.90
15133;DHT22;7667;51.232;17.110;2023-06-19T08:05:49;24.50;99.90
15133;DHT22;7667;51.232;17.110;2023-06-19T08:08:16;24.80;99.90
15133;DHT22;7667;51.232;17.110;2023-06-19T08:10:44;25.00;99.90
15133;DHT22;7667;51.232;17.110;2023-06-19T08:13:11;25.30;99.90
15133;DHT22;7667;51.232;17.110;2023-06-19T08:15:39;25.70;99.90
15133;DHT22;7667;51.232;17.110;2023-06-19T08:18:07;25.70;99.90
15133;DHT22;7667;51.232;17.110;2023-06-19T08:20:34;25.70;99.90
15133;DHT22;7667;51.232;17.110;2023-06-19T08:23:02;25.80;99.90
15133;DHT22;7667;51.232;17.110;2023-06-19T08:25:32;25.60;99.90
15133;DHT22;7667;51.232;17.110;2023-06-19T08:28:00;25.00;99.90
15133;DHT22;7667;51.232;17.110;2023-06-19T08:30:27;25.00;99.90
15133;DHT22;7667;51.232;17.110;2023-06-19T08:32:55;25.30;99.90
15133;DHT22;7667;51.232;17.110;2023-06-19T08:35:23;25.40;99.90
15133;DHT22;7667;51.232;17.110;2023-06-19T08:37:51;26.00;99.90
15133;DHT22;7667;51.232;17.110;2023-06-19T08:40:19;26.00;99.90
15133;DHT22;7667;51.232;17.110;2023-06-19T08:42:47;25.90;99.90
15133;DHT22;7667;51.232;17.110;2023-06-19T08:45:15;26.00;99.90
15133;DHT22;7667;51.232;17.110;2023-06-19T08:47:47;26.10;99.90
15133;DHT22;7667;51.232;17.110;2023-06-19T08:50:16;26.50;99.90
15133;DHT22;7667;51.232;17.110;2023-06-19T08:52:43;26.90;99.90
15133;DHT22;7667;51.232;17.110;2023-06-19T08:55:11;27.10;99.90
15133;DHT22;7667;51.232;17.110;2023-06-19T08:57:39;26.70;99.90
15133;DHT22;7667;51.232;17.110;2023-06-19T09:00:07;26.50;99.90
15133;DHT22;7667;51.232;17.110;2023-06-19T09:02:43;26.70;99.90
15133;DHT22;7667;51.232;17.110;2023-06-19T09:05:26;26.40;99.90
15133;DHT22;7667;51.232;17.110;2023-06-19T09:07:56;26.50;99.90
15133;DHT22;7667;51.232;17.110;2023-06-19T09:10:25;26.60;99.90
15133;DHT22;7667;51.232;17.110;2023-06-19T09:13:03;26.90;99.90
15133;DHT22;7667;51.232;17.110;2023-06-19T09:15:34;27.10;99.90
15133;DHT22;7667;51.232;17.110;2023-06-19T09:18:07;26.90;99.90
15133;DHT22;7667;51.232;17.110;2023-06-19T09:20:41;27.10;99.90
15133;DHT22;7667;51.232;17.110;2023-06-19T09:23:12;27.00;99.20
15133;DHT22;7667;51.232;17.110;2023-06-19T09:25:50;27.30;99.90
15133;DHT22;7667;51.232;17.110;2023-06-19T09:28:25;27.90;99.90
15133;DHT22;7667;51.232;17.110;2023-06-19T09:33:32;28.40;96.60
15133;DHT22;7667;51.232;17.110;2023-06-19T09:36:03;28.50;94.00
15133;DHT22;7667;51.232;17.110;2023-06-19T09:38:34;28.30;92.90
15133;DHT22;7667;51.232;17.110;2023-06-19T09:41:05;27.60;87.90
15133;DHT22;7667;51.232;17.110;2023-06-19T09:43:38;27.50;88.40
15133;DHT22;7667;51.232;17.110;2023-06-19T09:46:14;27.40;91.10
15133;DHT22;7667;51.232;17.110;2023-06-19T09:48:44;27.40;94.30
15133;DHT22;7667;51.232;17.110;2023-06-19T09:51:33;27.70;96.60
15133;DHT22;7667;51.232;17.110;2023-06-19T09:54:05;27.60;90.10
15133;DHT22;7667;51.232;17.110;2023-06-19T09:56:34;27.00;91.10
15133;DHT22;7667;51.232;17.110;2023-06-19T09:59:02;27.10;93.20
15133;DHT22;7667;51.232;17.110;2023-06-19T10:01:32;27.00;89.90
15133;DHT22;7667;51.232;17.110;2023-06-19T10:04:07;26.70;91.50
15133;DHT22;7667;51.232;17.110;2023-06-19T10:06:45;26.90;93.40
15133;DHT22;7667;51.232;17.110;2023-06-19T10:09:15;27.40;95.90
15133;DHT22;7667;51.232;17.110;2023-06-19T10:11:52;27.40;91.90
15133;DHT22;7667;51.232;17.110;2023-06-19T10:14:21;26.60;91.30
15133;DHT22;7667;51.232;17.110;2023-06-19T10:16:50;26.30;91.30
15133;DHT22;7667;51.232;17.110;2023-06-19T10:19:21;26.90;94.00
15133;DHT22;7667;51.232;17.110;2023-06-19T10:21:52;27.60;90.90
15133;DHT22;7667;51.232;17.110;2023-06-19T10:24:23;28.10;91.70
15133;DHT22;7667;51.232;17.110;2023-06-19T10:27:00;28.90;92.60
15133;DHT22;7667;51.232;17.110;2023-06-19T10:29:39;29.60;91.20
15133;DHT22;7667;51.232;17.110;2023-06-19T10:32:13;29.40;81.00
15133;DHT22;7667;51.232;17.110;2023-06-19T10:34:45;28.80;79.30
15133;DHT22;7667;51.232;17.110;2023-06-19T10:37:16;28.10;75.60
15133;DHT22;7667;51.232;17.110;2023-06-19T10:39:44;28.10;85.00
15133;DHT22;7667;51.232;17.110;2023-06-19T10:42:12;28.90;83.10
15133;DHT22;7667;51.232;17.110;2023-06-19T10:44:39;29.50;78.90
15133;DHT22;7667;51.232;17.110;2023-06-19T10:47:09;29.10;72.30
15133;DHT22;7667;51.232;17.110;2023-06-19T10:49:37;29.20;73.30
15133;DHT22;7667;51.232;17.110;2023-06-19T10:52:05;29.50;71.40
15133;DHT22;7667;51.232;17.110;2023-06-19T10:54:34;30.70;70.00
15133;DHT22;7667;51.232;17.110;2023-06-19T10:57:04;31.60;68.60
15133;DHT22;7667;51.232;17.110;2023-06-19T10:59:33;30.90;69.20
15133;DHT22;7667;51.232;17.110;2023-06-19T11:02:02;31.30;69.20
15133;DHT22;7667;51.232;17.110;2023-06-19T11:04:30;31.10;65.30
15133;DHT22;7667;51.232;17.110;2023-06-19T11:06:57;31.10;65.00
15133;DHT22;7667;51.232;17.110;2023-06-19T11:09:32;30.10;64.00
15133;DHT22;7667;51.232;17.110;2023-06-19T11:11:59;30.10;64.40
15133;DHT22;7667;51.232;17.110;2023-06-19T11:14:29;30.80;65.90
15133;DHT22;7667;51.232;17.110;2023-06-19T11:16:57;29.80;63.30
15133;DHT22;7667;51.232;17.110;2023-06-19T11:19:30;29.60;64.70
15133;DHT22;7667;51.232;17.110;2023-06-19T11:21:58;29.50;63.80
15133;DHT22;7667;51.232;17.110;2023-06-19T11:24:28;29.90;64.70
15133;DHT22;7667;51.232;17.110;2023-06-19T11:26:57;30.70;65.80
15133;DHT22;7667;51.232;17.110;2023-06-19T11:29:29;31.30;59.90
15133;DHT22;7667;51.232;17.110;2023-06-19T11:32:08;30.80;60.40
15133;DHT22;7667;51.232;17.110;2023-06-19T11:34:38;30.70;61.10
15133;DHT22;7667;51.232;17.110;2023-06-19T11:37:12;30.10;65.60
15133;DHT22;7667;51.232;17.110;2023-06-19T11:39:46;29.20;62.80
15133;DHT22;7667;51.232;17.110;2023-06-19T11:42:15;29.10;66.10
15133;DHT22;7667;51.232;17.110;2023-06-19T11:45:00;29.50;67.30
15133;DHT22;7667;51.232;17.110;2023-06-19T11:47:34;31.10;59.00
15133;DHT22;7667;51.232;17.110;2023-06-19T11:50:04;32.30;66.50
15133;DHT22;7667;51.232;17.110;2023-06-19T11:52:33;33.50;53.60
15133;DHT22;7667;51.232;17.110;2023-06-19T11:55:01;33.70;55.60
15133;DHT22;7667;51.232;17.110;2023-06-19T11:57:29;34.70;58.70
15133;DHT22;7667;51.232;17.110;2023-06-19T11:59:56;36.10;57.00
15133;DHT22;7667;51.232;17.110;2023-06-19T12:02:24;37.80;51.60
15133;DHT22;7667;51.232;17.110;2023-06-19T12:04:52;35.40;52.60
15133;DHT22;7667;51.232;17.110;2023-06-19T12:07:20;34.70;54.00
15133;DHT22;7667;51.232;17.110;2023-06-19T12:09:48;33.60;55.00
15133;DHT22;7667;51.232;17.110;2023-06-19T12:12:16;32.60;55.60
15133;DHT22;7667;51.232;17.110;2023-06-19T12:14:43;33.20;58.40
15133;DHT22;7667;51.232;17.110;2023-06-19T12:17:11;33.40;58.10
15133;DHT22;7667;51.232;17.110;2023-06-19T12:19:38;34.60;55.00
15133;DHT22;7667;51.232;17.110;2023-06-19T12:22:06;35.60;58.00
15133;DHT22;7667;51.232;17.110;2023-06-19T12:24:33;36.50;51.70
15133;DHT22;7667;51.232;17.110;2023-06-19T12:27:01;36.80;49.70
15133;DHT22;7667;51.232;17.110;2023-06-19T12:29:29;36.00;50.30
15133;DHT22;7667;51.232;17.110;2023-06-19T12:32:01;34.50;52.80
15133;DHT22;7667;51.232;17.110;2023-06-19T12:34:31;32.40;53.20
15133;DHT22;7667;51.232;17.110;2023-06-19T12:36:59;32.10;57.50
15133;DHT22;7667;51.232;17.110;2023-06-19T12:39:27;31.70;56.40
15133;DHT22;7667;51.232;17.110;2023-06-19T12:41:54;31.70;59.00
15133;DHT22;7667;51.232;17.110;2023-06-19T12:44:22;31.50;55.60
15133;DHT22;7667;51.232;17.110;2023-06-19T12:46:51;30.60;56.80
15133;DHT22;7667;51.232;17.110;2023-06-19T12:49:20;31.10;61.50
15133;DHT22;7667;51.232;17.110;2023-06-19T12:51:47;32.40;57.30
15133;DHT22;7667;51.232;17.110;2023-06-19T12:54:18;33.00;54.40
15133;DHT22;7667;51.232;17.110;2023-06-19T12:56:46;33.30;55.80
15133;DHT22;7667;51.232;17.110;2023-06-19T12:59:14;35.00;53.60
15133;DHT22;7667;51.232;17.110;2023-06-19T13:01:42;34.90;53.60
15133;DHT22;7667;51.232;17.110;2023-06-19T13:04:11;34.50;54.50
15133;DHT22;7667;51.232;17.110;2023-06-19T13:06:39;34.20;54.60
15133;DHT22;7667;51.232;17.110;2023-06-19T13:09:07;34.80;54.20
15133;DHT22;7667;51.232;17.110;2023-06-19T13:11:35;34.80;54.10
15133;DHT22;7667;51.232;17.110;2023-06-19T13:14:03;34.10;54.50
15133;DHT22;7667;51.232;17.110;2023-06-19T13:16:32;33.10;52.60
15133;DHT22;7667;51.232;17.110;2023-06-19T13:19:13;32.10;54.00
15133;DHT22;7667;51.232;17.110;2023-06-19T13:21:42;31.80;57.30
15133;DHT22;7667;51.232;17.110;2023-06-19T13:24:10;31.80;55.70
15133;DHT22;7667;51.232;17.110;2023-06-19T13:26:38;33.10;54.40
15133;DHT22;7667;51.232;17.110;2023-06-19T13:29:06;32.50;53.20
15133;DHT22;7667;51.232;17.110;2023-06-19T13:31:34;32.20;56.90
15133;DHT22;7667;51.232;17.110;2023-06-19T13:34:02;32.70;58.20
15133;DHT22;7667;51.232;17.110;2023-06-19T13:36:30;32.30;54.70
15133;DHT22;7667;51.232;17.110;2023-06-19T13:38:58;32.10;56.50
15133;DHT22;7667;51.232;17.110;2023-06-19T13:41:25;32.80;56.50
15133;DHT22;7667;51.232;17.110;2023-06-19T13:43:54;34.40;53.90
15133;DHT22;7667;51.232;17.110;2023-06-19T13:46:22;35.40;52.50
15133;DHT22;7667;51.232;17.110;2023-06-19T13:48:50;36.10;52.50
15133;DHT22;7667;51.232;17.110;2023-06-19T13:51:20;37.10;49.70
15133;DHT22;7667;51.232;17.110;2023-06-19T13:53:50;37.70;51.40
15133;DHT22;7667;51.232;17.110;2023-06-19T13:56:18;37.50;46.70
15133;DHT22;7667;51.232;17.110;2023-06-19T13:58:46;35.90;47.80
15133;DHT22;7667;51.232;17.110;2023-06-19T14:01:14;35.90;49.60
15133;DHT22;7667;51.232;17.110;2023-06-19T14:03:42;36.10;50.90
15133;DHT22;7667;51.232;17.110;2023-06-19T14:06:10;36.20;49.40
15133;DHT22;7667;51.232;17.110;2023-06-19T14:08:39;37.40;46.70
15133;DHT22;7667;51.232;17.110;2023-06-19T14:11:07;39.40;47.10
15133;DHT22;7667;51.232;17.110;2023-06-19T14:13:35;40.20;47.00
15133;DHT22;7667;51.232;17.110;2023-06-19T14:16:03;41.00;45.10
15133;DHT22;7667;51.232;17.110;2023-06-19T14:18:30;39.90;45.10
15133;DHT22;7667;51.232;17.110;2023-06-19T14:20:58;39.90;48.30
15133;DHT22;7667;51.232;17.110;2023-06-19T14:23:26;40.20;44.50
15133;DHT22;7667;51.232;17.110;2023-06-19T14:25:53;38.70;43.80
15133;DHT22;7667;51.232;17.110;2023-06-19T14:28:21;38.20;46.10
15133;DHT22;7667;51.232;17.110;2023-06-19T14:30:49;36.80;47.20
15133;DHT22;7667;51.232;17.110;2023-06-19T14:33:16;36.30;46.30
15133;DHT22;7667;51.232;17.110;2023-06-19T14:35:44;35.20;47.30
15133;DHT22;7667;51.232;17.110;2023-06-19T14:38:13;33.50;50.50
15133;DHT22;7667;51.232;17.110;2023-06-19T14:40:44;32.80;52.00
15133;DHT22;7667;51.232;17.110;2023-06-19T14:43:11;33.40;52.90
15133;DHT22;7667;51.232;17.110;2023-06-19T14:45:39;33.50;52.40
15133;DHT22;7667;51.232;17.110;2023-06-19T14:48:08;34.40;52.30
15133;DHT22;7667;51.232;17.110;2023-06-19T14:50:36;34.10;50.00
15133;DHT22;7667;51.232;17.110;2023-06-19T14:53:03;34.50;50.60
15133;DHT22;7667;51.232;17.110;2023-06-19T14:55:31;34.90;49.20
15133;DHT22;7667;51.232;17.110;2023-06-19T14:57:58;34.50;49.80
15133;DHT22;7667;51.232;17.110;2023-06-19T15:00:26;33.00;50.90
15133;DHT22;7667;51.232;17.110;2023-06-19T15:02:53;31.60;52.90
15133;DHT22;7667;51.232;17.110;2023-06-19T15:05:21;31.40;55.30
15133;DHT22;7667;51.232;17.110;2023-06-19T15:07:49;31.50;54.60
15133;DHT22;7667;51.232;17.110;2023-06-19T15:10:17;31.40;55.70
15133;DHT22;7667;51.232;17.110;2023-06-19T15:12:44;31.80;56.40
15133;DHT22;7667;51.232;17.110;2023-06-19T15:15:12;31.70;54.50
15133;DHT22;7667;51.232;17.110;2023-06-19T15:17:39;31.50;57.10
15133;DHT22;7667;51.232;17.110;2023-06-19T15:20:08;31.80;55.50
15133;DHT22;7667;51.232;17.110;2023-06-19T15:22:36;31.60;58.90
15133;DHT22;7667;51.232;17.110;2023-06-19T15:25:04;32.70;55.50
15133;DHT22;7667;51.232;17.110;2023-06-19T15:27:32;33.30;55.00
15133;DHT22;7667;51.232;17.110;2023-06-19T15:30:00;33.10;52.80
15133;DHT22;7667;51.232;17.110;2023-06-19T15:32:28;33.00;53.40
15133;DHT22;7667;51.232;17.110;2023-06-19T15:34:55;33.00;55.00
15133;DHT22;7667;51.232;17.110;2023-06-19T15:37:23;33.60;56.10
15133;DHT22;7667;51.232;17.110;2023-06-19T15:39:50;33.60;54.00
15133;DHT22;7667;51.232;17.110;2023-06-19T15:42:22;35.00;51.00
15133;DHT22;7667;51.232;17.110;2023-06-19T15:44:49;35.80;48.30